Time;durP1;ratioP1;P1;durP2;ratioP2;P2;SDS_P1;SDS_P2;PMS_P1;PMS_P2;Temp;Humidity;BMP_temperature;BMP_pressure;BME280_temperature;BME280_humidity;BME280_pressure;Samples;Min_cycle;Max_cycle;Signal;HPM_P1;HPM_P2
2023/01/26 00:01:23;;;;;;;11.63;8.73;;;;;;;4.71;58.66;100416.50;5094789;28;20034;-79
2023/01/26 00:03:49;;;;;;;12.70;8.87;;;;;;;4.66;58.37;100412.56;5093514;28;20031;-79
2023/01/26 00:06:17;;;;;;;13.50;9.30;;;;;;;4.80;58.52;100412.34;5092240;28;20046;-79
2023/01/26 00:08:51;;;;;;;12.97;9.90;;;;;;;4.80;58.40;100414.94;5090894;28;20050;-79
2023/01/26 00:11:29;;;;;;;15.03;10.67;;;;;;;4.38;58.74;100359.78;5090855;28;20070;-79
2023/01/26 00:13:56;;;;;;;14.27;10.00;;;;;;;4.76;58.58;100432.66;5092152;28;20058;-79
2023/01/26 00:16:22;;;;;;;16.73;10.90;;;;;;;4.30;58.41;100370.00;5091938;28;20389;-79
2023/01/26 00:18:48;;;;;;;13.30;9.70;;;;;;;4.52;58.61;100381.44;5090799;28;20115;-79
2023/01/26 00:21:19;;;;;;;15.20;9.20;;;;;;;4.09;58.57;100317.59;5093633;28;20093;-79
2023/01/26 00:23:45;;;;;;;12.20;9.77;;;;;;;4.79;58.41;100410.66;5092762;28;20101;-80
2023/01/26 00:26:17;;;;;;;14.10;10.27;;;;;;;4.05;58.62;100300.47;5093928;28;20028;-79
2023/01/26 00:28:42;;;;;;;16.58;11.95;;;;;;;3.97;58.59;100283.72;5092406;28;20024;-79
2023/01/26 00:31:12;;;;;;;17.43;11.20;;;;;;;4.78;58.94;100402.00;5092685;28;20511;-78
2023/01/26 00:33:38;;;;;;;15.53;10.90;;;;;;;4.02;59.05;100303.31;5100288;28;20038;-78
2023/01/26 00:36:03;;;;;;;13.23;10.20;;;;;;;4.64;59.37;100394.38;5105466;28;20028;-79
2023/01/26 00:38:29;;;;;;;14.43;10.53;;;;;;;4.32;59.32;100318.41;5091222;28;20020;-79
2023/01/26 00:40:54;;;;;;;12.67;9.67;;;;;;;4.49;59.09;100368.59;5091856;28;20028;-79
2023/01/26 00:43:20;;;;;;;12.10;9.43;;;;;;;4.57;59.23;100345.28;5091937;28;20084;-79
2023/01/26 00:45:45;;;;;;;13.57;9.77;;;;;;;4.47;58.56;100306.78;5092514;28;20413;-79
2023/01/26 00:48:11;;;;;;;12.47;8.53;;;;;;;4.60;58.91;100311.06;5091643;28;20108;-79
2023/01/26 00:50:36;;;;;;;14.57;10.20;;;;;;;4.81;58.73;100366.91;5091774;28;20065;-79
2023/01/26 00:53:02;;;;;;;11.90;9.13;;;;;;;4.44;58.83;100283.47;5091618;28;20024;-80
2023/01/26 00:55:31;;;;;;;12.67;9.33;;;;;;;4.93;59.03;100367.72;5091727;28;20447;-79
2023/01/26 00:58:00;;;;;;;14.13;9.80;;;;;;;4.94;58.88;100369.38;5091873;28;20024;-79
2023/01/26 01:00:26;;;;;;;14.53;10.07;;;;;;;4.95;58.90;100369.25;5092050;28;20028;-79
2023/01/26 01:02:52;;;;;;;12.77;9.17;;;;;;;4.39;59.01;100279.56;5091608;28;20081;-79
2023/01/26 01:05:17;;;;;;;12.27;9.13;;;;;;;4.28;59.19;100261.28;5093629;28;20024;-79
2023/01/26 01:07:43;;;;;;;12.00;7.93;;;;;;;4.83;59.43;100345.84;5093428;28;20054;-79
2023/01/26 01:10:09;;;;;;;12.10;8.80;;;;;;;4.90;59.35;100355.72;5092707;28;20028;-79
2023/01/26 01:12:34;;;;;;;12.20;8.67;;;;;;;4.37;59.17;100264.00;5092389;28;20032;-79
2023/01/26 01:15:00;;;;;;;17.20;10.00;;;;;;;4.27;59.42;100268.28;5092754;28;20111;-79
2023/01/26 01:17:25;;;;;;;12.30;8.57;;;;;;;4.92;59.30;100350.34;5093248;28;20032;-79
2023/01/26 01:19:51;;;;;;;13.07;9.20;;;;;;;4.67;59.10;100328.75;5092691;28;20459;-79
2023/01/26 01:22:17;;;;;;;13.87;9.10;;;;;;;4.63;59.02;100311.66;5092556;28;20493;-79
2023/01/26 01:24:42;;;;;;;13.33;7.97;;;;;;;4.21;59.14;100244.41;5092929;28;20016;-79
2023/01/26 01:27:07;;;;;;;11.67;8.40;;;;;;;4.60;59.19;100303.22;5091517;28;20032;-79
2023/01/26 01:29:33;;;;;;;11.43;8.77;;;;;;;4.89;59.35;100353.22;5092007;28;20036;-79
2023/01/26 01:31:58;;;;;;;11.77;8.73;;;;;;;4.68;59.28;100348.72;5096412;28;20033;-78
2023/01/26 01:34:24;;;;;;;13.80;9.90;;;;;;;4.04;59.58;100222.22;5096252;28;20067;-79
2023/01/26 01:36:49;;;;;;;11.43;8.87;;;;;;;4.58;59.40;100310.34;5096208;28;20107;-79
2023/01/26 01:39:15;;;;;;;12.60;9.07;;;;;;;4.26;59.26;100239.66;5095224;28;20073;-79
2023/01/26 01:41:40;;;;;;;12.37;8.60;;;;;;;4.52;59.36;100297.75;5096362;28;20027;-79
2023/01/26 01:44:17;;;;;;;14.37;8.90;;;;;;;4.72;59.14;100315.31;5096696;28;20405;-79
2023/01/26 01:46:52;;;;;;;16.40;9.80;;;;;;;4.87;59.47;100335.03;5096322;28;20447;-79
2023/01/26 01:49:30;;;;;;;17.90;12.20;;;;;;;4.77;59.34;100323.63;5095240;28;20085;-79
2023/01/26 01:52:16;;;;;;;13.03;9.37;;;;;;;4.50;59.61;100292.66;5095055;28;20117;-79
2023/01/26 01:54:50;;;;;;;13.93;9.63;;;;;;;4.70;59.54;100319.84;5094834;28;20032;-79
2023/01/26 01:57:26;;;;;;;15.63;10.33;;;;;;;4.61;59.55;100304.88;5096204;28;20020;-80
2023/01/26 01:59:58;;;;;;;13.47;10.40;;;;;;;4.86;59.69;100338.59;5096459;28;20103;-79
2023/01/26 02:02:24;;;;;;;14.95;11.35;;;;;;;4.48;59.62;100289.31;5096050;28;20032;-79
2023/01/26 02:04:49;;;;;;;13.73;9.73;;;;;;;4.83;59.86;100378.09;5094658;28;20420;-79
2023/01/26 02:07:15;;;;;;;14.87;10.23;;;;;;;3.94;60.05;100180.28;5093281;28;20411;-80
2023/01/26 02:12:28;;;;;;;14.10;9.80;;;;;;;4.35;59.81;100239.75;5094161;28;20572;-79
2023/01/26 02:14:55;;;;;;;14.50;10.40;;;;;;;4.34;59.66;100247.72;5093221;28;20027;-79
2023/01/26 02:17:21;;;;;;;13.70;10.33;;;;;;;4.00;59.65;100190.25;5094313;28;20051;-79
2023/01/26 02:20:20;;;;;;;13.13;9.97;;;;;;;4.89;59.77;100316.59;5095841;28;20052;-79
2023/01/26 02:23:09;;;;;;;15.33;10.10;;;;;;;4.46;59.53;100249.38;5096226;28;20055;-79
2023/01/26 02:25:48;;;;;;;13.70;9.90;;;;;;;3.96;59.63;100160.09;5096006;28;20106;-79
2023/01/26 02:28:13;;;;;;;12.30;9.63;;;;;;;4.50;59.67;100271.72;5095798;28;20056;-79
2023/01/26 02:30:39;;;;;;;12.83;9.63;;;;;;;4.14;59.80;100197.00;5094407;28;20048;-79
2023/01/26 02:33:04;;;;;;;11.97;9.27;;;;;;;2.80;60.10;100012.47;5095544;28;20401;-79
2023/01/26 02:35:29;;;;;;;15.27;9.33;;;;;;;3.89;60.17;100182.44;5093907;28;20103;-79
2023/01/26 02:37:55;;;;;;;14.73;9.13;;;;;;;4.38;60.00;100288.34;5093934;28;20104;-79
2023/01/26 02:41:04;;;;;;;13.27;9.67;;;;;;;4.42;60.10;100246.16;5094198;28;20027;-79
2023/01/26 02:43:31;;;;;;;11.93;8.00;;;;;;;4.25;59.85;100211.84;5087505;28;20526;-79
2023/01/26 02:45:56;;;;;;;13.60;9.20;;;;;;;4.14;60.21;100190.00;5093580;28;20443;-79
2023/01/26 02:51:06;;;;;;;13.67;8.90;;;;;;;4.63;60.19;100269.78;5093683;28;20031;-79
2023/01/26 02:53:32;;;;;;;13.40;9.43;;;;;;;4.35;60.12;100229.28;5092242;28;20021;-79
2023/01/26 02:55:57;;;;;;;15.17;9.90;;;;;;;3.16;59.94;100019.28;5093503;28;20036;-79
2023/01/26 02:58:23;;;;;;;21.80;12.23;;;;;;;4.61;59.89;100261.25;5092364;28;20495;-79
2023/01/26 03:00:48;;;;;;;19.80;12.40;;;;;;;4.53;59.87;100218.34;5093328;28;20028;-79
2023/01/26 03:03:22;;;;;;;13.03;9.60;;;;;;;4.79;59.78;100262.38;5098782;28;20046;-78
2023/01/26 03:05:48;;;;;;;13.10;9.57;;;;;;;4.83;59.81;100262.13;5104303;28;20082;-79
2023/01/26 03:08:14;;;;;;;13.20;8.90;;;;;;;4.84;59.69;100264.63;5093978;28;20090;-79
2023/01/26 03:10:40;;;;;;;13.73;8.97;;;;;;;4.64;59.64;100241.84;5094586;28;20476;-78
2023/01/26 03:13:06;;;;;;;10.90;8.20;;;;;;;3.18;59.57;99987.84;5094485;28;20024;-79
2023/01/26 03:15:51;;;;;;;12.50;8.00;;;;;;;4.87;59.51;100259.16;5094395;28;20420;-79
2023/01/26 03:29:16;;;;;;;14.07;9.97;;;;;;;4.47;59.83;100210.03;5093109;28;20072;-79
2023/01/26 03:31:42;;;;;;;12.03;9.40;;;;;;;4.63;59.57;100224.50;5092748;28;20485;-79
2023/01/26 03:34:07;;;;;;;14.87;9.60;;;;;;;4.09;59.77;100123.38;5093310;28;20032;-80
2023/01/26 03:36:33;;;;;;;18.60;11.07;;;;;;;4.07;59.63;100101.78;5093528;28;20034;-79
2023/01/26 03:38:58;;;;;;;12.57;8.90;;;;;;;4.84;59.69;100246.31;5093540;28;20473;-79
2023/01/26 03:57:48;;;;;;;14.30;9.83;;;;;;;4.33;59.47;100094.44;5092607;28;20039;-79
2023/01/26 04:00:14;;;;;;;14.93;9.60;;;;;;;4.86;59.80;100186.84;5092638;28;20114;-80
2023/01/26 04:08:23;;;;;;;13.50;9.00;;;;;;;4.55;59.47;100145.84;5092541;28;20121;-79
2023/01/26 04:10:52;;;;;;;13.73;9.47;;;;;;;4.82;59.73;100177.59;5092133;28;20027;-79
2023/01/26 04:21:33;;;;;;;10.37;7.37;;;;;;;4.68;59.56;100180.50;5095355;28;20067;-79
2023/01/26 04:23:59;;;;;;;10.80;7.83;;;;;;;4.81;59.28;100190.78;5094105;28;20417;-79
2023/01/26 04:26:33;;;;;;;11.00;7.87;;;;;;;4.10;59.37;100072.78;5093406;28;20024;-80
2023/01/26 04:29:10;;;;;;;10.87;7.87;;;;;;;4.67;59.55;100165.75;5094958;28;20164;-79
2023/01/26 04:31:36;;;;;;;13.33;8.67;;;;;;;4.86;59.24;100191.25;5092334;28;20538;-79
2023/01/26 04:34:04;;;;;;;12.70;9.87;;;;;;;4.85;59.45;100198.25;5092300;28;20047;-80
2023/01/26 04:36:30;;;;;;;14.63;10.67;;;;;;;2.68;59.37;99833.53;5091911;28;20043;-79
2023/01/26 04:38:55;;;;;;;13.40;10.23;;;;;;;3.94;59.20;100033.16;5091727;28;20024;-79
2023/01/26 04:41:21;;;;;;;15.30;10.97;;;;;;;4.20;59.43;100085.94;5091717;28;20058;-79
2023/01/26 04:43:46;;;;;;;19.60;12.53;;;;;;;4.15;59.47;100083.69;5090391;28;20026;-79
2023/01/26 04:46:12;;;;;;;15.77;11.60;;;;;;;3.77;59.46;100000.56;5091938;28;20082;-80
2023/01/26 04:48:38;;;;;;;17.23;13.00;;;;;;;4.19;59.19;100065.97;5092092;28;20042;-79
2023/01/26 04:51:06;;;;;;;16.20;11.00;;;;;;;4.54;59.39;100139.78;5092155;28;20024;-79
2023/01/26 04:53:32;;;;;;;16.90;12.00;;;;;;;4.06;59.38;100053.06;5091994;28;20097;-79
2023/01/26 04:55:58;;;;;;;15.20;10.33;;;;;;;4.91;59.33;100160.31;5091653;28;20024;-79
2023/01/26 04:58:24;;;;;;;12.77;9.47;;;;;;;4.86;59.43;100144.97;5091752;28;20031;-79
2023/01/26 05:00:51;;;;;;;13.90;10.13;;;;;;;4.92;59.43;100147.09;5092350;28;20028;-79
2023/01/26 05:03:17;;;;;;;11.80;9.27;;;;;;;4.12;59.25;100031.69;5092122;28;20028;-79
2023/01/26 05:05:44;;;;;;;12.83;9.23;;;;;;;4.91;59.28;100155.91;5094481;28;20056;-79
2023/01/26 05:08:09;;;;;;;14.23;9.07;;;;;;;4.21;59.32;100053.63;5097049;28;20488;-79
2023/01/26 05:10:35;;;;;;;12.10;8.90;;;;;;;4.94;59.15;100158.25;5097464;28;20036;-80
2023/01/26 05:13:00;;;;;;;14.40;10.07;;;;;;;4.49;59.20;100087.03;5097273;28;20055;-79
2023/01/26 05:15:26;;;;;;;11.73;9.87;;;;;;;4.13;59.38;100035.94;5097258;28;20032;-79
2023/01/26 05:17:51;;;;;;;11.33;9.13;;;;;;;4.19;59.64;100051.13;5097287;28;20030;-79
2023/01/26 05:20:17;;;;;;;11.73;8.00;;;;;;;4.15;59.46;100047.09;5096595;28;20489;-79
2023/01/26 05:22:42;;;;;;;12.10;9.37;;;;;;;4.42;59.70;100096.31;5095569;28;20458;-78
2023/01/26 05:25:09;;;;;;;13.10;9.17;;;;;;;4.33;59.62;100097.06;5096104;28;20028;-79
2023/01/26 05:27:35;;;;;;;13.43;9.20;;;;;;;4.78;59.77;100155.25;5097165;28;20081;-79
2023/01/26 05:30:00;;;;;;;13.07;9.57;;;;;;;4.02;59.70;100018.53;5095778;28;20031;-79
2023/01/26 05:32:27;;;;;;;14.40;10.10;;;;;;;4.80;59.90;100140.25;5097131;28;20028;-79
2023/01/26 05:34:53;;;;;;;13.73;9.70;;;;;;;4.82;59.83;100148.81;5096950;28;20034;-80
2023/01/26 05:37:18;;;;;;;14.80;10.70;;;;;;;4.14;59.79;100051.50;5096973;28;20024;-79
2023/01/26 05:39:44;;;;;;;15.63;10.43;;;;;;;3.93;59.98;100028.91;5097230;28;20027;-79
2023/01/26 05:42:12;;;;;;;14.90;10.50;;;;;;;4.81;60.39;100146.31;5097243;28;20461;-79
2023/01/26 05:44:38;;;;;;;15.20;11.70;;;;;;;4.65;60.68;100128.44;5097447;28;20060;-79
2023/01/26 05:47:04;;;;;;;14.93;9.90;;;;;;;4.80;60.45;100153.34;5096264;28;20035;-79
2023/01/26 05:49:30;;;;;;;15.00;11.13;;;;;;;4.60;60.58;100118.34;5096560;28;20023;-79
2023/01/26 05:51:56;;;;;;;15.87;10.87;;;;;;;4.46;60.77;100109.03;5096610;28;20055;-79
2023/01/26 05:54:21;;;;;;;16.90;11.47;;;;;;;4.62;60.92;100147.84;5106391;28;20039;-78
2023/01/26 05:56:47;;;;;;;15.93;11.43;;;;;;;4.41;61.52;100097.25;5107786;28;20031;-80
2023/01/26 05:59:12;;;;;;;13.07;10.53;;;;;;;4.72;61.68;100138.28;5096458;28;20024;-80
2023/01/26 06:01:38;;;;;;;17.00;11.40;;;;;;;4.31;61.77;100073.66;5097068;28;20065;-79
2023/01/26 06:04:04;;;;;;;14.00;10.40;;;;;;;4.40;61.83;100108.66;5097117;28;20077;-80
2023/01/26 06:06:29;;;;;;;17.07;11.90;;;;;;;4.57;61.91;100117.78;5095515;28;20032;-79
2023/01/26 06:08:56;;;;;;;15.70;11.50;;;;;;;4.62;62.35;100145.22;5095874;28;20034;-79
2023/01/26 06:11:21;;;;;;;15.13;11.23;;;;;;;4.70;62.22;100168.13;5097036;28;20038;-79
2023/01/26 06:13:47;;;;;;;17.77;12.40;;;;;;;4.04;62.33;100061.03;5096943;28;20522;-79
2023/01/26 06:16:13;;;;;;;15.43;11.43;;;;;;;4.14;62.60;100082.03;5105623;28;20027;-79
2023/01/26 06:18:38;;;;;;;18.70;12.60;;;;;;;4.25;62.67;100102.91;5101643;28;20481;-79
2023/01/26 06:21:04;;;;;;;16.67;12.17;;;;;;;4.64;62.86;100143.31;5093963;28;20130;-79
2023/01/26 06:23:29;;;;;;;15.50;11.67;;;;;;;4.49;63.29;100123.63;5093976;28;20020;-79
2023/01/26 06:26:00;;;;;;;16.00;12.23;;;;;;;4.04;63.04;100032.31;5093037;28;20031;-79
2023/01/26 06:28:29;;;;;;;17.07;12.90;;;;;;;4.12;63.39;100055.19;5094159;28;20058;-79
2023/01/26 06:31:05;;;;;;;16.63;12.13;;;;;;;3.90;63.39;100034.38;5096662;28;20031;-79
2023/01/26 06:33:33;;;;;;;16.70;11.50;;;;;;;3.71;63.13;99985.38;5096661;28;20030;-79
2023/01/26 06:36:08;;;;;;;13.77;11.03;;;;;;;4.48;63.42;100103.69;5096407;28;20457;-80
2023/01/26 06:38:34;;;;;;;16.33;12.50;;;;;;;4.06;63.52;100037.41;5093240;28;20028;-79
2023/01/26 06:41:06;;;;;;;17.23;11.73;;;;;;;3.91;63.67;100023.78;5094456;28;20082;-79
2023/01/26 06:43:33;;;;;;;15.23;11.32;;;;;;;4.63;63.59;100125.94;5094561;28;20028;-80
2023/01/26 06:45:58;;;;;;;16.87;12.70;;;;;;;4.25;63.41;100112.53;5093763;28;20032;-79
2023/01/26 06:48:25;;;;;;;19.67;13.53;;;;;;;4.37;63.78;100099.28;5091650;28;20036;-79
2023/01/26 06:50:51;;;;;;;16.53;12.53;;;;;;;4.05;64.19;100043.59;5080525;28;20052;-79
2023/01/26 06:53:52;;;;;;;19.80;14.13;;;;;;;4.27;64.55;100077.47;5098596;28;20060;-79
2023/01/26 06:56:19;;;;;;;22.73;16.30;;;;;;;4.11;64.53;100074.44;5088330;28;20042;-79
2023/01/26 06:58:45;;;;;;;23.00;16.00;;;;;;;4.49;64.76;100112.34;5093482;28;20023;-79
2023/01/26 07:01:16;;;;;;;21.93;14.77;;;;;;;4.47;64.91;100100.22;5093592;28;20061;-79
2023/01/26 07:03:42;;;;;;;18.80;12.48;;;;;;;3.34;64.80;99930.06;5093597;28;20020;-79
2023/01/26 07:06:10;;;;;;;18.03;13.30;;;;;;;3.96;65.15;100034.69;5093357;28;20028;-79
2023/01/26 07:08:36;;;;;;;17.30;12.83;;;;;;;3.05;64.83;99867.97;5091737;28;20489;-79
2023/01/26 07:11:01;;;;;;;19.87;14.90;;;;;;;4.43;65.10;100087.50;5089764;28;20035;-79
2023/01/26 07:13:26;;;;;;;16.40;12.60;;;;;;;3.79;64.80;99990.84;5093230;28;20032;-79
2023/01/26 07:15:59;;;;;;;17.63;11.33;;;;;;;4.29;64.98;100046.81;5093278;28;20032;-79
2023/01/26 07:18:25;;;;;;;18.93;12.83;;;;;;;3.99;64.76;99991.81;5091767;28;20031;-79
2023/01/26 07:20:50;;;;;;;14.80;10.27;;;;;;;3.86;64.72;99972.88;5089934;28;20053;-79
2023/01/26 07:23:15;;;;;;;15.60;11.80;;;;;;;4.29;64.79;100009.38;5098782;28;20106;-79
2023/01/26 07:25:42;;;;;;;16.17;12.93;;;;;;;4.22;64.61;100003.84;5093720;28;20020;-79
2023/01/26 07:28:09;;;;;;;17.27;12.47;;;;;;;4.67;64.90;100053.28;5103468;28;20035;-79
2023/01/26 07:30:35;;;;;;;17.87;12.40;;;;;;;4.69;65.03;100040.91;5091327;28;20026;-79
2023/01/26 07:33:00;;;;;;;20.23;14.20;;;;;;;3.98;64.71;99919.63;5093775;28;20107;-80
2023/01/26 07:35:26;;;;;;;21.07;14.63;;;;;;;4.27;64.90;99962.47;5089721;28;20031;-79
2023/01/26 07:37:51;;;;;;;19.07;13.87;;;;;;;4.59;65.12;100014.72;5085512;28;20028;-79
2023/01/26 07:40:17;;;;;;;18.97;12.80;;;;;;;4.18;65.03;99957.16;5092874;28;20107;-79
2023/01/26 07:42:42;;;;;;;17.40;12.73;;;;;;;4.04;65.15;99937.41;5090142;28;20127;-79
2023/01/26 07:45:08;;;;;;;16.87;12.83;;;;;;;3.90;65.01;99916.81;5093290;28;20037;-79
2023/01/26 07:47:34;;;;;;;19.57;13.57;;;;;;;3.76;65.47;99916.16;5105573;28;20501;-80
2023/01/26 07:50:00;;;;;;;17.67;13.17;;;;;;;4.02;65.34;99986.34;5088954;28;20050;-80
2023/01/26 07:52:25;;;;;;;18.27;12.77;;;;;;;4.47;65.47;100063.63;5088321;28;20012;-79
2023/01/26 07:54:51;;;;;;;17.70;12.77;;;;;;;3.78;65.52;99961.28;5089767;28;20028;-80
2023/01/26 07:57:16;;;;;;;19.20;13.10;;;;;;;3.92;65.57;99977.59;5088995;28;20020;-80
2023/01/26 07:59:41;;;;;;;16.17;12.60;;;;;;;4.05;65.68;99999.16;5089230;28;20032;-80
2023/01/26 08:02:09;;;;;;;16.37;12.10;;;;;;;4.07;65.38;100000.69;5092104;28;20063;-80
2023/01/26 08:04:34;;;;;;;18.93;13.63;;;;;;;3.96;65.63;99976.41;5089976;28;20013;-80
2023/01/26 08:07:00;;;;;;;22.30;14.77;;;;;;;4.08;65.75;100040.72;5098311;28;20182;-80
2023/01/26 08:09:25;;;;;;;19.47;14.80;;;;;;;2.86;65.51;99800.78;5101304;28;20019;-79
2023/01/26 08:11:50;;;;;;;22.90;15.47;;;;;;;4.31;65.58;100017.94;5103705;28;20508;-79
2023/01/26 08:14:16;;;;;;;21.10;14.93;;;;;;;4.15;65.75;99994.84;5100581;28;20027;-79
2023/01/26 08:16:41;;;;;;;20.47;15.37;;;;;;;3.73;65.64;99919.03;5097729;28;20020;-80
2023/01/26 08:19:07;;;;;;;25.00;17.23;;;;;;;4.67;65.56;100063.75;5097911;28;20024;-80
2023/01/26 08:21:32;;;;;;;20.27;14.40;;;;;;;4.50;65.44;100028.56;5090276;28;20036;-79
2023/01/26 08:24:00;;;;;;;20.70;14.63;;;;;;;4.26;66.08;99981.72;5090957;28;20027;-78
2023/01/26 08:26:26;;;;;;;22.67;15.83;;;;;;;4.62;65.73;100034.53;5091311;28;20515;-79
2023/01/26 08:28:51;;;;;;;23.03;17.60;;;;;;;3.77;65.39;99886.50;5091577;28;20024;-78
2023/01/26 08:31:19;;;;;;;22.23;15.40;;;;;;;4.69;65.71;100027.84;5087885;28;20023;-78
2023/01/26 08:33:49;;;;;;;23.73;16.80;;;;;;;4.83;65.66;100040.59;5089572;28;20415;-79
2023/01/26 08:36:15;;;;;;;20.97;15.77;;;;;;;4.60;65.82;99997.22;5094175;28;20053;-79
2023/01/26 08:38:41;;;;;;;22.70;17.67;;;;;;;4.84;65.82;100025.72;5087226;28;20023;-79
2023/01/26 08:41:09;;;;;;;27.63;19.43;;;;;;;4.58;65.60;99996.53;5103763;28;20106;-79
2023/01/26 08:43:34;;;;;;;26.67;18.43;;;;;;;3.39;66.00;99774.75;5091160;28;20123;-80
2023/01/26 08:46:00;;;;;;;21.87;16.40;;;;;;;4.50;65.94;99955.34;5089661;28;20537;-79
2023/01/26 08:48:27;;;;;;;24.20;17.23;;;;;;;4.61;65.97;99970.94;5093207;28;20493;-79
2023/01/26 08:50:57;;;;;;;25.57;18.13;;;;;;;4.84;65.68;99989.94;5093400;28;20041;-79
2023/01/26 08:53:23;;;;;;;26.87;18.63;;;;;;;4.83;65.77;99987.44;5086779;28;20507;-79
2023/01/26 08:55:49;;;;;;;21.33;16.43;;;;;;;4.83;65.99;99996.13;5076246;28;20032;-80
2023/01/26 08:58:15;;;;;;;25.53;17.10;;;;;;;4.41;65.90;99919.47;5088879;28;20091;-79
2023/01/26 09:00:40;;;;;;;21.73;16.13;;;;;;;3.67;65.69;99802.00;5092048;28;20055;-79
2023/01/26 09:03:07;;;;;;;22.03;16.57;;;;;;;4.84;65.87;99989.94;5073851;28;20020;-80
2023/01/26 09:05:35;;;;;;;22.00;15.43;;;;;;;4.68;66.16;99971.25;5071823;28;20078;-81
2023/01/26 09:08:00;;;;;;;21.67;16.07;;;;;;;4.86;66.13;99985.41;5087309;28;20048;-79
2023/01/26 09:10:26;;;;;;;24.30;17.47;;;;;;;3.94;66.09;99861.59;5079319;28;20452;-79
2023/01/26 09:12:51;;;;;;;24.13;15.97;;;;;;;4.63;66.21;99969.03;5089232;28;20428;-80
2023/01/26 09:15:17;;;;;;;28.70;18.57;;;;;;;4.37;66.19;99934.59;5088551;28;20479;-79
2023/01/26 09:17:42;;;;;;;18.30;14.07;;;;;;;4.66;66.40;99947.03;5086452;28;20489;-79
2023/01/26 09:20:10;;;;;;;22.43;15.03;;;;;;;4.28;66.38;99877.88;5072876;28;20048;-79
2023/01/26 09:22:35;;;;;;;25.47;16.73;;;;;;;4.84;66.69;99971.63;5091698;28;20028;-79
2023/01/26 09:25:01;;;;;;;25.00;17.70;;;;;;;4.38;66.82;99904.88;5090947;28;20076;-79
2023/01/26 09:27:26;;;;;;;23.43;17.27;;;;;;;4.36;66.83;99890.28;5085576;28;20063;-78
2023/01/26 09:29:52;;;;;;;27.90;18.97;;;;;;;4.23;67.27;99856.53;5071761;28;20062;-78
2023/01/26 09:32:18;;;;;;;26.50;18.63;;;;;;;4.52;66.94;99898.50;5082679;28;20066;-78
2023/01/26 09:34:43;;;;;;;26.47;17.77;;;;;;;4.37;66.94;99878.88;5090025;28;20056;-78
2023/01/26 09:37:09;;;;;;;23.53;17.07;;;;;;;4.80;67.22;99949.28;5091322;28;20521;-79
2023/01/26 09:39:34;;;;;;;23.80;16.87;;;;;;;4.29;67.14;99870.84;5091625;28;20114;-79
2023/01/26 09:42:34;;;;;;;25.07;17.27;;;;;;;4.74;67.52;99937.56;5089643;28;20020;-79
2023/01/26 09:45:11;;;;;;;30.47;20.47;;;;;;;4.72;67.50;99922.97;5070225;28;20086;-79
2023/01/26 09:48:01;;;;;;;35.10;24.23;;;;;;;4.75;67.54;99912.25;5071418;28;20032;-79
2023/01/26 09:50:36;;;;;;;35.23;24.13;;;;;;;4.21;67.30;99829.69;5071193;28;20028;-79
2023/01/26 09:53:10;;;;;;;28.37;18.63;;;;;;;4.56;67.95;99873.75;5080703;28;20028;-80
2023/01/26 09:55:38;;;;;;;29.23;20.77;;;;;;;4.13;67.76;99795.53;5089956;28;20098;-79
2023/01/26 09:58:31;;;;;;;30.83;21.37;;;;;;;4.56;67.90;99852.00;5088577;28;20070;-78
2023/01/26 10:00:59;;;;;;;34.37;22.23;;;;;;;4.58;67.84;99844.88;5089455;28;20020;-79
2023/01/26 10:03:44;;;;;;;36.20;26.57;;;;;;;4.45;67.58;99826.75;5085829;28;20020;-79
2023/01/26 10:06:28;;;;;;;31.87;23.13;;;;;;;4.24;68.02;99805.91;5092375;28;20020;-79
2023/01/26 10:08:55;;;;;;;30.70;21.50;;;;;;;4.37;68.41;99832.66;5073119;28;20505;-79
2023/01/26 10:11:37;;;;;;;29.43;19.47;;;;;;;4.36;68.32;99820.53;5092775;28;20028;-79
2023/01/26 10:14:29;;;;;;;29.48;18.95;;;;;;;4.54;68.31;99860.00;5090286;28;20028;-79
2023/01/26 10:16:55;;;;;;;;;;;;;;;4.40;68.72;99868.97;5089117;28;20059;-79
2023/01/26 10:19:38;;;;;;;29.87;17.77;;;;;;;4.44;68.52;99861.72;5094713;28;20389;-79
2023/01/26 10:22:13;;;;;;;28.53;19.37;;;;;;;4.40;68.51;99857.69;5092660;28;20521;-79
2023/01/26 10:24:38;;;;;;;32.27;20.53;;;;;;;4.04;68.58;99796.31;5095420;28;20108;-78
2023/01/26 10:27:10;;;;;;;29.57;20.93;;;;;;;3.90;68.41;99750.47;5093421;28;20031;-79
2023/01/26 10:29:36;;;;;;;27.13;19.75;;;;;;;4.48;68.55;99826.53;5106704;28;20038;-79
2023/01/26 10:32:02;;;;;;;27.27;16.77;;;;;;;4.13;68.51;99753.72;5093898;28;20028;-79
2023/01/26 10:34:28;;;;;;;25.30;17.83;;;;;;;4.22;68.53;99762.56;5094744;28;21067;-78
2023/01/26 10:37:10;;;;;;;25.57;19.60;;;;;;;4.60;68.29;99811.56;5089393;28;20028;-78
2023/01/26 10:40:03;;;;;;;29.43;21.07;;;;;;;3.78;68.65;99689.66;5091274;28;20032;-79
2023/01/26 10:42:29;;;;;;;;;;;;;;;4.35;69.65;99816.28;5093154;28;20081;-79
2023/01/26 10:44:56;;;;;;;31.37;21.10;;;;;;;3.95;68.92;99739.63;5091518;28;19912;-79
2023/01/26 10:47:21;;;;;;;24.43;18.47;;;;;;;3.73;68.82;99688.41;5099457;28;20057;-79
2023/01/26 10:49:47;;;;;;;24.07;18.47;;;;;;;4.32;68.82;99781.72;5106899;28;20032;-79
2023/01/26 10:52:26;;;;;;;29.77;20.70;;;;;;;4.49;69.18;99820.34;5092143;28;20488;-79
2023/01/26 10:55:19;;;;;;;36.73;25.27;;;;;;;4.41;69.56;99807.06;5092410;28;20028;-79
2023/01/26 10:57:44;;;;;;;38.10;27.57;;;;;;;4.21;69.18;99758.31;5087825;28;20545;-78
2023/01/26 11:00:32;;;;;;;37.00;24.20;;;;;;;4.49;69.48;99788.13;5092853;28;20027;-79
2023/01/26 11:03:12;;;;;;;32.77;24.13;;;;;;;4.52;69.17;99793.09;5081768;28;20381;-79
2023/01/26 11:05:38;;;;;;;25.93;19.43;;;;;;;4.45;68.98;99770.06;5090231;28;20062;-78
2023/01/26 11:08:37;;;;;;;28.10;20.63;;;;;;;4.45;69.12;99758.78;5093191;28;20558;-79
2023/01/26 11:11:03;;;;;;;28.40;21.47;;;;;;;4.23;69.36;99725.03;5093696;28;20447;-79
2023/01/26 11:13:29;;;;;;;29.20;22.00;;;;;;;4.22;69.55;99732.03;5091467;28;20032;-79
2023/01/26 11:16:02;;;;;;;26.93;19.37;;;;;;;4.43;69.57;99758.91;5094059;28;20043;-79
2023/01/26 11:18:59;;;;;;;25.80;18.43;;;;;;;3.54;69.74;99616.03;5093095;28;20020;-79
2023/01/26 11:21:26;;;;;;;23.13;17.20;;;;;;;4.02;69.47;99676.28;5093039;28;20047;-79
2023/01/26 11:24:30;;;;;;;26.53;19.17;;;;;;;4.48;69.31;99745.47;5089336;28;20420;-79
2023/01/26 11:27:17;;;;;;;30.70;20.67;;;;;;;4.50;69.60;99738.31;5093992;28;20032;-79
2023/01/26 11:29:45;;;;;;;25.03;17.93;;;;;;;4.53;69.38;99732.00;5099842;28;20052;-79
2023/01/26 11:32:17;;;;;;;31.80;22.30;;;;;;;4.53;69.43;99730.22;5093789;28;20031;-79
2023/01/26 11:35:00;;;;;;;28.85;20.02;;;;;;;4.19;69.59;99677.44;5094224;28;20092;-79
2023/01/26 11:37:53;;;;;;;25.67;17.90;;;;;;;4.41;69.94;99721.63;5093931;28;20112;-78
2023/01/26 11:40:33;;;;;;;25.33;18.97;;;;;;;4.44;69.93;99734.44;5093842;28;20028;-79
2023/01/26 11:42:59;;;;;;;22.97;17.67;;;;;;;4.47;69.77;99715.91;5094112;28;20032;-78
2023/01/26 11:46:02;;;;;;;18.70;13.23;;;;;;;4.45;69.73;99709.13;5093392;28;20027;-79
2023/01/26 11:48:54;;;;;;;21.17;15.80;;;;;;;4.43;69.75;99696.19;5094174;28;20084;-79
2023/01/26 11:51:35;;;;;;;19.90;15.30;;;;;;;4.42;69.57;99704.16;5095871;28;20031;-79
2023/01/26 11:54:00;;;;;;;20.00;14.97;;;;;;;4.43;69.52;99697.97;5094771;28;20039;-80
2023/01/26 11:56:38;;;;;;;17.87;13.17;;;;;;;4.40;69.78;99712.13;5095151;28;20028;-78
2023/01/26 11:59:12;;;;;;;16.87;11.83;;;;;;;3.57;69.48;99609.72;5091065;28;20173;-79
2023/01/26 12:01:47;;;;;;;19.07;13.93;;;;;;;4.15;69.63;99686.50;5090466;28;20084;-79
2023/01/26 12:04:21;;;;;;;18.33;13.93;;;;;;;3.62;70.05;99610.97;5093257;28;20024;-79
2023/01/26 12:07:11;;;;;;;22.13;17.37;;;;;;;4.22;70.50;99705.06;5093065;28;20121;-79
2023/01/26 12:09:42;;;;;;;21.77;14.97;;;;;;;4.01;70.10;99676.41;5090276;28;20016;-79
2023/01/26 12:12:23;;;;;;;19.30;13.98;;;;;;;4.11;70.70;99685.09;5090090;28;20028;-79
2023/01/26 12:15:00;;;;;;;20.97;16.27;;;;;;;4.24;70.29;99690.91;5093279;28;20035;-79
2023/01/26 12:18:05;;;;;;;20.43;14.20;;;;;;;4.15;70.18;99681.25;5095228;28;20139;-78
2023/01/26 12:21:01;;;;;;;20.60;13.43;;;;;;;4.18;70.50;99681.00;5087241;28;20101;-79
2023/01/26 12:23:34;;;;;;;19.43;12.67;;;;;;;3.59;70.41;99586.91;5091026;28;20035;-79